sensor_id;sensor_type;location;lat;lon;timestamp;pressure;altitude;pressure_sealevel;temperature;humidity
17593;BME280;8915;51.760;14.300;2022-09-03T00:00:29;101097.34;;;11.78;100.00
17593;BME280;8915;51.760;14.300;2022-09-03T00:03:01;101098.38;;;11.71;100.00
17593;BME280;8915;51.760;14.300;2022-09-03T00:05:35;101089.78;;;11.66;100.00
17593;BME280;8915;51.760;14.300;2022-09-03T00:08:08;101092.56;;;11.60;100.00
17593;BME280;8915;51.760;14.300;2022-09-03T00:10:42;101094.34;;;11.58;100.00
17593;BME280;8915;51.760;14.300;2022-09-03T00:13:13;101094.31;;;11.59;100.00
17593;BME280;8915;51.760;14.300;2022-09-03T00:15:41;101096.19;;;11.54;100.00
17593;BME280;8915;51.760;14.300;2022-09-03T00:18:11;101089.22;;;11.53;100.00
17593;BME280;8915;51.760;14.300;2022-09-03T00:20:41;101089.31;;;11.48;100.00
17593;BME280;8915;51.760;14.300;2022-09-03T00:23:17;101096.34;;;11.45;100.00
17593;BME280;8915;51.760;14.300;2022-09-03T00:25:49;101091.16;;;11.43;100.00
17593;BME280;8915;51.760;14.300;2022-09-03T00:28:21;101093.03;;;11.38;100.00
17593;BME280;8915;51.760;14.300;2022-09-03T00:31:06;101081.81;;;11.34;100.00
17593;BME280;8915;51.760;14.300;2022-09-03T00:33:38;101084.47;;;11.31;100.00
17593;BME280;8915;51.760;14.300;2022-09-03T00:36:13;101081.09;;;11.28;100.00
17593;BME280;8915;51.760;14.300;2022-09-03T00:38:44;101090.75;;;11.23;100.00
17593;BME280;8915;51.760;14.300;2022-09-03T00:41:19;101078.63;;;11.20;100.00
17593;BME280;8915;51.760;14.300;2022-09-03T00:43:59;101075.19;;;11.18;100.00
17593;BME280;8915;51.760;14.300;2022-09-03T00:46:35;101077.06;;;11.11;100.00
17593;BME280;8915;51.760;14.300;2022-09-03T00:49:18;101077.00;;;11.14;100.00
17593;BME280;8915;51.760;14.300;2022-09-03T00:51:55;101080.72;;;11.03;100.00
17593;BME280;8915;51.760;14.300;2022-09-03T00:54:33;101076.41;;;11.02;100.00
17593;BME280;8915;51.760;14.300;2022-09-03T00:57:21;101075.72;;;10.92;100.00
17593;BME280;8915;51.760;14.300;2022-09-03T00:59:54;101071.47;;;10.88;100.00
17593;BME280;8915;51.760;14.300;2022-09-03T01:02:27;101067.06;;;10.90;100.00
17593;BME280;8915;51.760;14.300;2022-09-03T01:05:05;101059.41;;;10.84;100.00
17593;BME280;8915;51.760;14.300;2022-09-03T01:07:39;101069.97;;;10.76;100.00
17593;BME280;8915;51.760;14.300;2022-09-03T01:10:17;101062.97;;;10.78;100.00
17593;BME280;8915;51.760;14.300;2022-09-03T01:12:51;101064.06;;;10.68;100.00
17593;BME280;8915;51.760;14.300;2022-09-03T01:15:28;101063.16;;;10.69;100.00
17593;BME280;8915;51.760;14.300;2022-09-03T01:18:07;101064.97;;;10.64;100.00
17593;BME280;8915;51.760;14.300;2022-09-03T01:20:44;101063.19;;;10.66;100.00
17593;BME280;8915;51.760;14.300;2022-09-03T01:23:30;101063.38;;;10.56;100.00
17593;BME280;8915;51.760;14.300;2022-09-03T01:26:15;101066.16;;;10.49;100.00
17593;BME280;8915;51.760;14.300;2022-09-03T01:28:57;101067.06;;;10.46;100.00
17593;BME280;8915;51.760;14.300;2022-09-03T01:31:35;101065.44;;;10.40;100.00
17593;BME280;8915;51.760;14.300;2022-09-03T01:34:12;101061.09;;;10.39;100.00
17593;BME280;8915;51.760;14.300;2022-09-03T01:36:47;101062.88;;;10.37;100.00
17593;BME280;8915;51.760;14.300;2022-09-03T01:39:23;101068.97;;;10.38;100.00
17593;BME280;8915;51.760;14.300;2022-09-03T01:42:00;101067.22;;;10.37;100.00
17593;BME280;8915;51.760;14.300;2022-09-03T01:44:51;101066.38;;;10.36;100.00
17593;BME280;8915;51.760;14.300;2022-09-03T01:47:37;101071.63;;;10.35;100.00
17593;BME280;8915;51.760;14.300;2022-09-03T01:50:15;101069.97;;;10.28;100.00
17593;BME280;8915;51.760;14.300;2022-09-03T01:52:50;101076.09;;;10.23;100.00
17593;BME280;8915;51.760;14.300;2022-09-03T01:55:29;101063.06;;;10.23;100.00
17593;BME280;8915;51.760;14.300;2022-09-03T01:57:59;101060.56;;;10.19;100.00
17593;BME280;8915;51.760;14.300;2022-09-03T02:00:29;101064.09;;;10.15;100.00
17593;BME280;8915;51.760;14.300;2022-09-03T02:03:01;101061.47;;;10.16;100.00
17593;BME280;8915;51.760;14.300;2022-09-03T02:05:30;101065.88;;;10.13;100.00
17593;BME280;8915;51.760;14.300;2022-09-03T02:07:59;101062.56;;;10.04;100.00
17593;BME280;8915;51.760;14.300;2022-09-03T02:10:28;101057.34;;;10.04;100.00
17593;BME280;8915;51.760;14.300;2022-09-03T02:13:01;101057.34;;;10.04;100.00
17593;BME280;8915;51.760;14.300;2022-09-03T02:15:31;101050.53;;;9.97;100.00
17593;BME280;8915;51.760;14.300;2022-09-03T02:18:03;101052.28;;;9.95;100.00
17593;BME280;8915;51.760;14.300;2022-09-03T02:20:31;101048.94;;;9.89;100.00
17593;BME280;8915;51.760;14.300;2022-09-03T02:22:58;101050.63;;;9.90;100.00
17593;BME280;8915;51.760;14.300;2022-09-03T02:25:29;101041.16;;;9.87;100.00
17593;BME280;8915;51.760;14.300;2022-09-03T02:27:58;101047.22;;;9.86;100.00
17593;BME280;8915;51.760;14.300;2022-09-03T02:30:25;101046.41;;;9.82;100.00
17593;BME280;8915;51.760;14.300;2022-09-03T02:32:52;101048.19;;;9.80;100.00
17593;BME280;8915;51.760;14.300;2022-09-03T02:35:19;101043.94;;;9.75;100.00
17593;BME280;8915;51.760;14.300;2022-09-03T02:37:45;101049.22;;;9.69;100.00
17593;BME280;8915;51.760;14.300;2022-09-03T02:40:11;101046.63;;;9.69;100.00
17593;BME280;8915;51.760;14.300;2022-09-03T02:42:38;101058.81;;;9.66;100.00
17593;BME280;8915;51.760;14.300;2022-09-03T02:45:10;101046.75;;;9.62;100.00
17593;BME280;8915;51.760;14.300;2022-09-03T02:47:39;101050.19;;;9.63;100.00
17593;BME280;8915;51.760;14.300;2022-09-03T02:50:09;101043.25;;;9.62;100.00
17593;BME280;8915;51.760;14.300;2022-09-03T02:52:35;101045.94;;;9.57;100.00
17593;BME280;8915;51.760;14.300;2022-09-03T02:55:02;101048.56;;;9.56;100.00
17593;BME280;8915;51.760;14.300;2022-09-03T02:57:29;101039.00;;;9.56;100.00
17593;BME280;8915;51.760;14.300;2022-09-03T02:59:55;101040.00;;;9.49;100.00
17593;BME280;8915;51.760;14.300;2022-09-03T03:02:21;101042.63;;;9.47;100.00
17593;BME280;8915;51.760;14.300;2022-09-03T03:04:48;101045.22;;;9.46;100.00
17593;BME280;8915;51.760;14.300;2022-09-03T03:07:15;101049.63;;;9.42;100.00
17593;BME280;8915;51.760;14.300;2022-09-03T03:09:42;101053.13;;;9.41;100.00
17593;BME280;8915;51.760;14.300;2022-09-03T03:12:08;101040.13;;;9.40;100.00
17593;BME280;8915;51.760;14.300;2022-09-03T03:14:34;101047.97;;;9.38;100.00
17593;BME280;8915;51.760;14.300;2022-09-03T03:17:01;101056.41;;;9.54;100.00
17593;BME280;8915;51.760;14.300;2022-09-03T03:19:27;101051.31;;;9.48;100.00
17593;BME280;8915;51.760;14.300;2022-09-03T03:21:54;101053.91;;;9.48;100.00
17593;BME280;8915;51.760;14.300;2022-09-03T03:24:21;101054.66;;;9.53;100.00
17593;BME280;8915;51.760;14.300;2022-09-03T03:26:47;101064.34;;;9.46;100.00
17593;BME280;8915;51.760;14.300;2022-09-03T03:29:15;101060.94;;;9.41;100.00
17593;BME280;8915;51.760;14.300;2022-09-03T03:31:42;101065.22;;;9.44;100.00
17593;BME280;8915;51.760;14.300;2022-09-03T03:34:09;101060.88;;;9.44;100.00
17593;BME280;8915;51.760;14.300;2022-09-03T03:36:35;101058.25;;;9.44;100.00
17593;BME280;8915;51.760;14.300;2022-09-03T03:39:02;101060.00;;;9.45;100.00
17593;BME280;8915;51.760;14.300;2022-09-03T03:41:30;101061.66;;;9.50;100.00
17593;BME280;8915;51.760;14.300;2022-09-03T03:43:58;101054.78;;;9.47;100.00
17593;BME280;8915;51.760;14.300;2022-09-03T03:46:29;101057.38;;;9.47;100.00
17593;BME280;8915;51.760;14.300;2022-09-03T03:48:56;101059.16;;;9.45;100.00
17593;BME280;8915;51.760;14.300;2022-09-03T03:51:22;101052.22;;;9.42;100.00
17593;BME280;8915;51.760;14.300;2022-09-03T03:53:53;101057.44;;;9.41;100.00
17593;BME280;8915;51.760;14.300;2022-09-03T03:56:19;101054.00;;;9.39;100.00
17593;BME280;8915;51.760;14.300;2022-09-03T03:58:47;101050.56;;;9.38;100.00
17593;BME280;8915;51.760;14.300;2022-09-03T04:01:15;101054.03;;;9.37;100.00
17593;BME280;8915;51.760;14.300;2022-09-03T04:03:43;101050.63;;;9.34;100.00
17593;BME280;8915;51.760;14.300;2022-09-03T04:06:10;101049.75;;;9.35;100.00
17593;BME280;8915;51.760;14.300;2022-09-03T04:08:39;101044.53;;;9.36;100.00
17593;BME280;8915;51.760;14.300;2022-09-03T04:11:07;101056.69;;;9.36;100.00
17593;BME280;8915;51.760;14.300;2022-09-03T04:13:36;101055.84;;;9.32;100.00
17593;BME280;8915;51.760;14.300;2022-09-03T04:16:06;101057.56;;;9.35;100.00
17593;BME280;8915;51.760;14.300;2022-09-03T04:18:33;101062.78;;;9.33;100.00
17593;BME280;8915;51.760;14.300;2022-09-03T04:21:01;101064.53;;;9.31;100.00
17593;BME280;8915;51.760;14.300;2022-09-03T04:23:29;101058.41;;;9.35;100.00
17593;BME280;8915;51.760;14.300;2022-09-03T04:25:55;101057.56;;;9.35;100.00
17593;BME280;8915;51.760;14.300;2022-09-03T04:28:22;101062.72;;;9.38;100.00
17593;BME280;8915;51.760;14.300;2022-09-03T04:30:48;101061.81;;;9.40;100.00
17593;BME280;8915;51.760;14.300;2022-09-03T04:33:16;101057.41;;;9.44;100.00
17593;BME280;8915;51.760;14.300;2022-09-03T04:35:43;101056.47;;;9.50;100.00
17593;BME280;8915;51.760;14.300;2022-09-03T04:38:09;101063.41;;;9.51;100.00
17593;BME280;8915;51.760;14.300;2022-09-03T04:40:36;101062.41;;;9.58;100.00
17593;BME280;8915;51.760;14.300;2022-09-03T04:43:03;101059.75;;;9.62;100.00
17593;BME280;8915;51.760;14.300;2022-09-03T04:45:29;101062.25;;;9.70;100.00
17593;BME280;8915;51.760;14.300;2022-09-03T04:47:57;101062.19;;;9.75;100.00
17593;BME280;8915;51.760;14.300;2022-09-03T04:50:25;101063.78;;;9.82;100.00
17593;BME280;8915;51.760;14.300;2022-09-03T04:52:59;101060.22;;;9.88;100.00
17593;BME280;8915;51.760;14.300;2022-09-03T04:55:26;101060.13;;;9.94;100.00
17593;BME280;8915;51.760;14.300;2022-09-03T04:57:53;101067.00;;;9.98;100.00
17593;BME280;8915;51.760;14.300;2022-09-03T05:00:19;101063.44;;;10.03;100.00
17593;BME280;8915;51.760;14.300;2022-09-03T05:02:46;101071.19;;;10.08;100.00
17593;BME280;8915;51.760;14.300;2022-09-03T05:05:13;101077.09;;;10.16;100.00
17593;BME280;8915;51.760;14.300;2022-09-03T05:07:41;101074.41;;;10.22;100.00
17593;BME280;8915;51.760;14.300;2022-09-03T05:10:09;101080.34;;;10.32;100.00
17593;BME280;8915;51.760;14.300;2022-09-03T05:12:37;101068.06;;;10.39;100.00
17593;BME280;8915;51.760;14.300;2022-09-03T05:15:04;101071.41;;;10.46;100.00
17593;BME280;8915;51.760;14.300;2022-09-03T05:17:31;101069.44;;;10.57;100.00
17593;BME280;8915;51.760;14.300;2022-09-03T05:19:57;101078.97;;;10.61;100.00
17593;BME280;8915;51.760;14.300;2022-09-03T05:22:23;101082.31;;;10.68;100.00
17593;BME280;8915;51.760;14.300;2022-09-03T05:24:51;101077.81;;;10.74;100.00
17593;BME280;8915;51.760;14.300;2022-09-03T05:27:20;101080.25;;;10.84;100.00
17593;BME280;8915;51.760;14.300;2022-09-03T05:29:47;101087.06;;;10.91;100.00
17593;BME280;8915;51.760;14.300;2022-09-03T05:32:14;101073.00;;;10.98;100.00
17593;BME280;8915;51.760;14.300;2022-09-03T05:34:41;101079.78;;;11.07;100.00
17593;BME280;8915;51.760;14.300;2022-09-03T05:37:07;101077.84;;;11.15;100.00
17593;BME280;8915;51.760;14.300;2022-09-03T05:39:34;101082.88;;;11.26;100.00
17593;BME280;8915;51.760;14.300;2022-09-03T05:42:01;101093.94;;;11.37;100.00
17593;BME280;8915;51.760;14.300;2022-09-03T05:44:28;101088.47;;;11.48;100.00
17593;BME280;8915;51.760;14.300;2022-09-03T05:46:54;101090.78;;;11.60;100.00
17593;BME280;8915;51.760;14.300;2022-09-03T05:49:21;101090.53;;;11.71;100.00
17593;BME280;8915;51.760;14.300;2022-09-03T05:51:47;101093.84;;;11.79;100.00
17593;BME280;8915;51.760;14.300;2022-09-03T05:54:14;101092.81;;;11.86;100.00
17593;BME280;8915;51.760;14.300;2022-09-03T05:56:41;101093.50;;;11.95;100.00
17593;BME280;8915;51.760;14.300;2022-09-03T05:59:09;101099.38;;;12.03;100.00
17593;BME280;8915;51.760;14.300;2022-09-03T06:01:37;101101.91;;;12.07;100.00
17593;BME280;8915;51.760;14.300;2022-09-03T06:04:05;101088.63;;;12.15;100.00
17593;BME280;8915;51.760;14.300;2022-09-03T06:06:33;101092.88;;;12.21;100.00
17593;BME280;8915;51.760;14.300;2022-09-03T06:09:02;101091.84;;;12.26;100.00
17593;BME280;8915;51.760;14.300;2022-09-03T06:11:30;101093.38;;;12.35;100.00
17593;BME280;8915;51.760;14.300;2022-09-03T06:13:57;101093.97;;;12.45;100.00
17593;BME280;8915;51.760;14.300;2022-09-03T06:16:27;101099.06;;;12.51;100.00
17593;BME280;8915;51.760;14.300;2022-09-03T06:18:53;101101.53;;;12.56;100.00
17593;BME280;8915;51.760;14.300;2022-09-03T06:21:21;101099.59;;;12.62;100.00
17593;BME280;8915;51.760;14.300;2022-09-03T06:23:48;101100.34;;;12.67;100.00
17593;BME280;8915;51.760;14.300;2022-09-03T06:26:16;101103.66;;;12.74;100.00
17593;BME280;8915;51.760;14.300;2022-09-03T06:28:44;101096.63;;;12.76;100.00
17593;BME280;8915;51.760;14.300;2022-09-03T06:31:13;101102.50;;;12.84;100.00
17593;BME280;8915;51.760;14.300;2022-09-03T06:33:42;101104.16;;;12.87;100.00
17593;BME280;8915;51.760;14.300;2022-09-03T06:36:11;101097.03;;;12.92;100.00
17593;BME280;8915;51.760;14.300;2022-09-03T06:38:38;101103.03;;;12.96;100.00
17593;BME280;8915;51.760;14.300;2022-09-03T06:41:07;101097.03;;;12.92;100.00
17593;BME280;8915;51.760;14.300;2022-09-03T06:43:35;101103.97;;;12.95;100.00
17593;BME280;8915;51.760;14.300;2022-09-03T06:46:04;101098.59;;;12.99;100.00
17593;BME280;8915;51.760;14.300;2022-09-03T06:48:32;101106.22;;;13.07;100.00
17593;BME280;8915;51.760;14.300;2022-09-03T06:51:01;101106.13;;;13.10;100.00
17593;BME280;8915;51.760;14.300;2022-09-03T06:53:29;101107.63;;;13.19;100.00
17593;BME280;8915;51.760;14.300;2022-09-03T06:55:57;101108.19;;;13.30;100.00
17593;BME280;8915;51.760;14.300;2022-09-03T06:58:24;101107.19;;;13.34;100.00
17593;BME280;8915;51.760;14.300;2022-09-03T07:01:00;101112.34;;;13.37;100.00
17593;BME280;8915;51.760;14.300;2022-09-03T07:03:26;101106.03;;;13.44;100.00
17593;BME280;8915;51.760;14.300;2022-09-03T07:05:52;101111.81;;;13.54;100.00
17593;BME280;8915;51.760;14.300;2022-09-03T07:08:20;101108.03;;;13.64;100.00
17593;BME280;8915;51.760;14.300;2022-09-03T07:10:46;101127.06;;;13.70;100.00
17593;BME280;8915;51.760;14.300;2022-09-03T07:13:13;101126.91;;;13.76;100.00
17593;BME280;8915;51.760;14.300;2022-09-03T07:15:39;101121.50;;;13.80;100.00
17593;BME280;8915;51.760;14.300;2022-09-03T07:18:06;101126.69;;;13.82;100.00
17593;BME280;8915;51.760;14.300;2022-09-03T07:20:32;101115.94;;;13.91;100.00
17593;BME280;8915;51.760;14.300;2022-09-03T07:22:59;101118.03;;;14.07;100.00
17593;BME280;8915;51.760;14.300;2022-09-03T07:25:27;101117.91;;;14.11;100.00
17593;BME280;8915;51.760;14.300;2022-09-03T07:27:54;101127.69;;;14.06;100.00
17593;BME280;8915;51.760;14.300;2022-09-03T07:30:20;101123.13;;;14.11;100.00
17593;BME280;8915;51.760;14.300;2022-09-03T07:32:47;101125.34;;;14.24;100.00
17593;BME280;8915;51.760;14.300;2022-09-03T07:35:15;101112.78;;;14.33;100.00
17593;BME280;8915;51.760;14.300;2022-09-03T07:37:42;101111.59;;;14.42;100.00
17593;BME280;8915;51.760;14.300;2022-09-03T07:40:09;101110.50;;;14.49;100.00
17593;BME280;8915;51.760;14.300;2022-09-03T07:42:37;101115.22;;;14.65;100.00
17593;BME280;8915;51.760;14.300;2022-09-03T07:45:06;101107.72;;;14.79;100.00
17593;BME280;8915;51.760;14.300;2022-09-03T07:47:35;101111.66;;;14.91;100.00
17593;BME280;8915;51.760;14.300;2022-09-03T07:50:01;101113.00;;;15.03;100.00
17593;BME280;8915;51.760;14.300;2022-09-03T07:52:28;101109.22;;;15.10;100.00
17593;BME280;8915;51.760;14.300;2022-09-03T07:54:55;101109.06;;;15.14;98.22
17593;BME280;8915;51.760;14.300;2022-09-03T07:57:21;101107.78;;;15.25;99.62
17593;BME280;8915;51.760;14.300;2022-09-03T07:59:49;101117.28;;;15.29;97.50
17593;BME280;8915;51.760;14.300;2022-09-03T08:02:15;101118.41;;;15.45;99.95
17593;BME280;8915;51.760;14.300;2022-09-03T08:04:41;101119.59;;;15.60;96.01
17593;BME280;8915;51.760;14.300;2022-09-03T08:07:09;101112.19;;;15.70;95.85
17593;BME280;8915;51.760;14.300;2022-09-03T08:09:35;101111.00;;;15.79;94.75
17593;BME280;8915;51.760;14.300;2022-09-03T08:12:02;101113.50;;;15.82;94.54
17593;BME280;8915;51.760;14.300;2022-09-03T08:14:29;101118.00;;;16.00;93.51
17593;BME280;8915;51.760;14.300;2022-09-03T08:16:57;101122.09;;;16.07;91.25
17593;BME280;8915;51.760;14.300;2022-09-03T08:19:24;101114.69;;;16.17;92.52
17593;BME280;8915;51.760;14.300;2022-09-03T08:21:50;101120.34;;;16.28;90.87
17593;BME280;8915;51.760;14.300;2022-09-03T08:24:17;101108.31;;;16.43;91.84
17593;BME280;8915;51.760;14.300;2022-09-03T08:26:45;101111.69;;;16.47;91.37
17593;BME280;8915;51.760;14.300;2022-09-03T08:29:11;101109.69;;;16.52;90.89
17593;BME280;8915;51.760;14.300;2022-09-03T08:31:38;101104.75;;;16.65;90.16
17593;BME280;8915;51.760;14.300;2022-09-03T08:34:06;101109.34;;;16.80;88.95
17593;BME280;8915;51.760;14.300;2022-09-03T08:36:35;101108.09;;;16.89;86.67
17593;BME280;8915;51.760;14.300;2022-09-03T08:39:04;101111.97;;;17.01;86.87
17593;BME280;8915;51.760;14.300;2022-09-03T08:41:47;101108.97;;;17.09;85.74
17593;BME280;8915;51.760;14.300;2022-09-03T08:44:23;101111.06;;;17.21;85.80
17593;BME280;8915;51.760;14.300;2022-09-03T08:46:54;101109.25;;;17.21;82.32
17593;BME280;8915;51.760;14.300;2022-09-03T08:49:26;101112.28;;;17.14;80.76
17593;BME280;8915;51.760;14.300;2022-09-03T08:51:54;101102.94;;;17.26;83.50
17593;BME280;8915;51.760;14.300;2022-09-03T08:54:25;101098.34;;;17.48;82.16
17593;BME280;8915;51.760;14.300;2022-09-03T08:56:53;101098.56;;;17.63;82.71
17593;BME280;8915;51.760;14.300;2022-09-03T08:59:20;101095.34;;;17.75;81.64
17593;BME280;8915;51.760;14.300;2022-09-03T09:01:51;101090.44;;;17.85;80.85
17593;BME280;8915;51.760;14.300;2022-09-03T09:04:29;101087.78;;;18.04;80.62
17593;BME280;8915;51.760;14.300;2022-09-03T09:07:05;101082.19;;;18.10;80.39
17593;BME280;8915;51.760;14.300;2022-09-03T09:09:41;101087.25;;;18.14;78.92
17593;BME280;8915;51.760;14.300;2022-09-03T09:12:19;101086.41;;;18.14;77.14
17593;BME280;8915;51.760;14.300;2022-09-03T09:14:49;101092.31;;;18.19;74.75
17593;BME280;8915;51.760;14.300;2022-09-03T09:17:33;101087.56;;;18.26;73.85
17593;BME280;8915;51.760;14.300;2022-09-03T09:20:09;101083.84;;;18.30;73.98
17593;BME280;8915;51.760;14.300;2022-09-03T09:22:42;101086.84;;;18.40;74.11
17593;BME280;8915;51.760;14.300;2022-09-03T09:25:12;101079.31;;;18.49;73.56
17593;BME280;8915;51.760;14.300;2022-09-03T09:27:46;101072.34;;;18.64;72.86
17593;BME280;8915;51.760;14.300;2022-09-03T09:30:16;101078.94;;;18.73;74.10
17593;BME280;8915;51.760;14.300;2022-09-03T09:32:43;101089.00;;;18.84;73.60
17593;BME280;8915;51.760;14.300;2022-09-03T09:35:14;101090.13;;;18.78;70.41
17593;BME280;8915;51.760;14.300;2022-09-03T09:37:48;101087.81;;;18.89;70.72
17593;BME280;8915;51.760;14.300;2022-09-03T09:40:22;101087.97;;;18.86;69.56
17593;BME280;8915;51.760;14.300;2022-09-03T09:42:50;101082.78;;;19.01;71.12
17593;BME280;8915;51.760;14.300;2022-09-03T09:45:22;101077.94;;;19.09;69.55
17593;BME280;8915;51.760;14.300;2022-09-03T09:47:53;101079.41;;;19.15;69.42
17593;BME280;8915;51.760;14.300;2022-09-03T09:50:22;101069.75;;;19.14;71.91
17593;BME280;8915;51.760;14.300;2022-09-03T09:52:59;101074.97;;;19.31;70.05
17593;BME280;8915;51.760;14.300;2022-09-03T09:55:28;101068.75;;;19.32;70.61
17593;BME280;8915;51.760;14.300;2022-09-03T09:58:04;101068.91;;;19.29;71.46
17593;BME280;8915;51.760;14.300;2022-09-03T10:00:30;101076.44;;;19.37;68.96
17593;BME280;8915;51.760;14.300;2022-09-03T10:02:59;101066.16;;;19.46;66.86
17593;BME280;8915;51.760;14.300;2022-09-03T10:05:29;101063.22;;;19.37;70.38
17593;BME280;8915;51.760;14.300;2022-09-03T10:07:59;101077.44;;;19.34;64.71
17593;BME280;8915;51.760;14.300;2022-09-03T10:10:27;101063.78;;;19.58;67.42
17593;BME280;8915;51.760;14.300;2022-09-03T10:13:02;101064.47;;;19.77;67.07
17593;BME280;8915;51.760;14.300;2022-09-03T10:15:34;101056.53;;;19.77;66.62
17593;BME280;8915;51.760;14.300;2022-09-03T10:18:08;101064.09;;;19.83;64.33
17593;BME280;8915;51.760;14.300;2022-09-03T10:20:44;101070.47;;;19.95;61.76
17593;BME280;8915;51.760;14.300;2022-09-03T10:23:19;101059.38;;;19.89;60.97
17593;BME280;8915;51.760;14.300;2022-09-03T10:25:56;101059.38;;;19.89;61.82
17593;BME280;8915;51.760;14.300;2022-09-03T10:28:29;101052.13;;;19.92;60.18
17593;BME280;8915;51.760;14.300;2022-09-03T10:31:12;101046.19;;;20.03;62.74
17593;BME280;8915;51.760;14.300;2022-09-03T10:33:46;101056.28;;;19.96;60.50
17593;BME280;8915;51.760;14.300;2022-09-03T10:36:18;101054.34;;;19.84;59.77
17593;BME280;8915;51.760;14.300;2022-09-03T10:38:47;101042.84;;;19.69;59.71
17593;BME280;8915;51.760;14.300;2022-09-03T10:41:27;101043.97;;;19.65;57.29
17593;BME280;8915;51.760;14.300;2022-09-03T10:44:13;101040.47;;;19.64;59.31
17593;BME280;8915;51.760;14.300;2022-09-03T10:46:50;101038.59;;;19.82;59.40
17593;BME280;8915;51.760;14.300;2022-09-03T10:49:34;101033.50;;;19.94;58.51
17593;BME280;8915;51.760;14.300;2022-09-03T10:52:15;101032.69;;;20.08;59.66
17593;BME280;8915;51.760;14.300;2022-09-03T10:54:52;101018.81;;;20.18;58.07
17593;BME280;8915;51.760;14.300;2022-09-03T10:57:29;101026.19;;;20.28;57.64
17593;BME280;8915;51.760;14.300;2022-09-03T11:00:05;101023.47;;;20.43;57.63
17593;BME280;8915;51.760;14.300;2022-09-03T11:02:57;101027.63;;;20.33;56.40
17593;BME280;8915;51.760;14.300;2022-09-03T11:05:31;101018.47;;;20.24;57.90
17593;BME280;8915;51.760;14.300;2022-09-03T11:08:08;101024.00;;;20.05;58.09
17593;BME280;8915;51.760;14.300;2022-09-03T11:10:40;101012.44;;;19.92;58.32
17593;BME280;8915;51.760;14.300;2022-09-03T11:13:12;101011.50;;;19.93;59.30
17593;BME280;8915;51.760;14.300;2022-09-03T11:15:43;101009.63;;;20.10;57.51
17593;BME280;8915;51.760;14.300;2022-09-03T11:18:17;101014.19;;;20.08;58.77
17593;BME280;8915;51.760;14.300;2022-09-03T11:20:48;101004.41;;;19.94;57.65
17593;BME280;8915;51.760;14.300;2022-09-03T11:23:18;101000.50;;;19.85;59.70
17593;BME280;8915;51.760;14.300;2022-09-03T11:25:48;100994.41;;;19.99;58.43
17593;BME280;8915;51.760;14.300;2022-09-03T11:28:24;100989.53;;;20.50;58.51
17593;BME280;8915;51.760;14.300;2022-09-03T11:31:15;100997.47;;;20.79;54.58
17593;BME280;8915;51.760;14.300;2022-09-03T11:33:46;100997.38;;;20.52;56.39
17593;BME280;8915;51.760;14.300;2022-09-03T11:36:28;100990.19;;;20.68;58.19
17593;BME280;8915;51.760;14.300;2022-09-03T11:38:57;100987.63;;;20.81;56.78
17593;BME280;8915;51.760;14.300;2022-09-03T11:41:26;100996.13;;;21.01;56.04
17593;BME280;8915;51.760;14.300;2022-09-03T11:43:53;100989.03;;;21.28;55.83
17593;BME280;8915;51.760;14.300;2022-09-03T11:46:27;100993.06;;;21.34;54.77
17593;BME280;8915;51.760;14.300;2022-09-03T11:48:55;100988.41;;;21.10;56.63
17593;BME280;8915;51.760;14.300;2022-09-03T11:51:31;100989.50;;;20.79;54.93
17593;BME280;8915;51.760;14.300;2022-09-03T11:54:02;100986.13;;;20.77;55.35
17593;BME280;8915;51.760;14.300;2022-09-03T11:56:30;100986.41;;;21.14;56.02
17593;BME280;8915;51.760;14.300;2022-09-03T11:59:00;100976.34;;;20.92;53.96
17593;BME280;8915;51.760;14.300;2022-09-03T12:01:27;100988.78;;;20.63;53.91
17593;BME280;8915;51.760;14.300;2022-09-03T12:03:58;100978.94;;;20.65;55.07
17593;BME280;8915;51.760;14.300;2022-09-03T12:06:41;100975.59;;;20.61;55.99
17593;BME280;8915;51.760;14.300;2022-09-03T12:09:33;100977.91;;;20.67;55.87
17593;BME280;8915;51.760;14.300;2022-09-03T12:12:13;100968.72;;;20.73;55.12
17593;BME280;8915;51.760;14.300;2022-09-03T12:14:48;100970.78;;;20.82;55.99
17593;BME280;8915;51.760;14.300;2022-09-03T12:17:27;100972.53;;;20.69;54.63
17593;BME280;8915;51.760;14.300;2022-09-03T12:19:57;100960.22;;;20.68;56.77
17593;BME280;8915;51.760;14.300;2022-09-03T12:22:25;100955.72;;;20.97;54.68
17593;BME280;8915;51.760;14.300;2022-09-03T12:24:54;100963.16;;;21.32;56.67
17593;BME280;8915;51.760;14.300;2022-09-03T12:27:22;100959.78;;;21.43;55.21
17593;BME280;8915;51.760;14.300;2022-09-03T12:29:51;100970.50;;;21.41;53.34
17593;BME280;8915;51.760;14.300;2022-09-03T12:32:20;100975.63;;;21.44;54.01
17593;BME280;8915;51.760;14.300;2022-09-03T12:34:46;100962.34;;;21.44;52.19
17593;BME280;8915;51.760;14.300;2022-09-03T12:37:19;100959.69;;;21.17;53.11
17593;BME280;8915;51.760;14.300;2022-09-03T12:39:49;100955.19;;;21.05;54.57
17593;BME280;8915;51.760;14.300;2022-09-03T12:42:22;100956.03;;;21.05;53.40
17593;BME280;8915;51.760;14.300;2022-09-03T12:44:50;100960.50;;;21.32;55.29
17593;BME280;8915;51.760;14.300;2022-09-03T12:47:18;100950.75;;;21.05;53.02
17593;BME280;8915;51.760;14.300;2022-09-03T12:49:47;100947.66;;;20.98;53.60
17593;BME280;8915;51.760;14.300;2022-09-03T12:52:17;100946.59;;;21.28;54.09
17593;BME280;8915;51.760;14.300;2022-09-03T12:54:49;100941.97;;;21.45;53.79
17593;BME280;8915;51.760;14.300;2022-09-03T12:57:22;100943.19;;;21.53;52.45
17593;BME280;8915;51.760;14.300;2022-09-03T12:59:53;100933.22;;;21.57;54.16
17593;BME280;8915;51.760;14.300;2022-09-03T13:02:35;100928.88;;;21.29;52.93